SBVH

Vilhena Airport

Airport
ICAO code
SBVH
IATA Code
BVH
Summary
ICAO Region
CARSAM
ICAO Territory
Location

Vilhena, Rondonia

Serving
Vilhena
Elevation
2018 ft
Coordinates
12° 41' 59" S , 60° 5' 60" W
KCC
Metar
SBVH 171300Z 01006KT CAVOK 27/18 Q1016

Brigadeiro Camarão Airport is the airport serving Vilhena, Brazil.

Climatology

Tropical savanna climate (Köppen climate classification Aw)

Runways

Designator Length Width Surface Rops
3/21 2600 30 ASP No/No

Airport map

Aerial View

SKYbrary Partners:

Safety knowledge contributed by: